الصفحة الرئيسية
METAR-TAF:

METAR-TAF

مطار :

لوكسمبورغ, لوكسمبورغ

مطار لوكسمبورغ

دائرة عرض: 49-37N, خط طول: 006-13E, ارتفاع: 376 متر

مراقبة الطقس الحالي

تاريخ ووقت الإصدار 30 دقيقة قبل الساعة 17:50UTC
ريح 3 عقدة من الجنوب/الجنوب الشرقي
درجة الحرارة 1°درجة مئوية
الرطوبة 86%
ضغط 1024 hPa
الرؤية: 5000 متر
غشاء

METAR: ELLX 181750Z 15003KT 5000 BR NSC 01/M01 Q1024 R99/19//48 NOSIG

زمن: 19:20 (18:20 UTC)

توقعات

تاريخ ووقت الإصدار 1ساعة و 20 دقيقة قبل الساعة 17:00UTC
التوقعات صالحة من18 الساعة 18 UTC إلى 19 الساعة 24 UTC
ريح 5 عقدة من الجنوب/الجنوب الشرقي
الرؤية 10 كم أو أكثر
الغيوم لا تقل 1500 م ولا وجود لمزنة ركامية السحاب الأسود
نظرية الاحتمالات 30%
من 19 الساعة 00 UTC إلى 19 الساعة 10 UTC
الرؤية: 4000 متر
الضباب الضحلة

TAF: ELLX 181700Z 1818/1924 15005KT CAVOK PROB30 1900/1910 4000 MIFG

أرصاد الطقس والتوقعات من أكثر من 4000 مطار (تقارير الطقس للمطار METAR والتنبؤ بالطقس بالمطارTAF).

المحطات المتاحة هي النقط الصفراء والحمراء على الخريطة.

حرك المؤشر فوق النقطة لمعرفة اسم المحطة.

ثم انقر لمعرفة أرصاد وتوقعات الطقس.

لتغيير الخارطة: اضغط على الأزرار الخضراء مع رمز الصليب الأسود للتكبير. على الزر الأخضر مع شرطة للتصغير، أو على الأسهم الخضراء للخرائط المجاورة.


METAR-TAF: